createdAt,value
2023-05-05T00:01:09.972Z,57.11
2023-05-05T00:03:43.021Z,57.18
2023-05-05T00:06:16.060Z,57.02
2023-05-05T00:08:48.393Z,57.09
2023-05-05T00:11:20.565Z,56.95
2023-05-05T00:13:52.973Z,56.91
2023-05-05T00:16:25.439Z,56.78
2023-05-05T00:18:58.075Z,56.87
2023-05-05T00:21:31.156Z,56.27
2023-05-05T00:24:03.613Z,55.74
2023-05-05T00:26:36.176Z,55.21
2023-05-05T00:29:08.925Z,54.74
2023-05-05T00:31:41.592Z,54.95
2023-05-05T00:34:13.939Z,54.78
2023-05-05T00:36:46.495Z,54.74
2023-05-05T00:39:18.692Z,55.11
2023-05-05T00:41:50.926Z,54.70
2023-05-05T00:44:38.496Z,54.48
2023-05-05T00:47:11.322Z,54.65
2023-05-05T00:49:45.363Z,54.69
2023-05-05T00:52:17.997Z,54.43
2023-05-05T00:54:50.393Z,54.27
2023-05-05T00:57:23.429Z,54.31
2023-05-05T00:59:55.994Z,54.15
2023-05-05T01:02:31.163Z,54.64
2023-05-05T01:05:05.047Z,54.83
2023-05-05T01:07:48.426Z,55.51
2023-05-05T01:10:31.023Z,55.02
2023-05-05T01:13:14.291Z,55.24
2023-05-05T01:15:51.084Z,55.64
2023-05-05T01:18:33.440Z,55.86
2023-05-05T01:21:14.864Z,55.99
2023-05-05T01:24:17.990Z,56.17
2023-05-05T01:27:09.555Z,55.90
2023-05-05T01:30:02.501Z,55.82
2023-05-05T01:32:39.819Z,56.00
2023-05-05T01:35:19.569Z,56.12
2023-05-05T01:37:59.464Z,56.04
2023-05-05T01:40:38.990Z,55.75
2023-05-05T01:43:14.924Z,56.28
2023-05-05T01:45:49.220Z,56.38
2023-05-05T01:48:23.557Z,56.81
2023-05-05T01:50:56.131Z,57.00
2023-05-05T01:53:30.688Z,56.89
2023-05-05T01:56:05.054Z,56.63
2023-05-05T01:58:38.539Z,57.02
2023-05-05T02:01:12.328Z,56.96
2023-05-05T02:03:47.147Z,57.51
2023-05-05T02:06:22.097Z,57.60
2023-05-05T02:08:56.055Z,57.57
2023-05-05T02:11:30.224Z,57.70
2023-05-05T02:14:04.507Z,57.31
2023-05-05T02:16:41.267Z,57.45
2023-05-05T02:19:15.806Z,57.13
2023-05-05T02:21:50.133Z,57.01
2023-05-05T02:24:24.188Z,56.92
2023-05-05T02:26:59.712Z,57.03
2023-05-05T02:29:36.652Z,56.61
2023-05-05T02:32:16.396Z,56.86
2023-05-05T02:34:51.420Z,56.48
2023-05-05T02:37:28.659Z,56.51
2023-05-05T02:40:03.976Z,57.16
2023-05-05T02:42:41.172Z,56.89
2023-05-05T02:45:18.702Z,56.85
2023-05-05T02:47:52.872Z,56.72
2023-05-05T02:50:26.194Z,56.49
2023-05-05T02:53:08.421Z,56.32
2023-05-05T02:55:45.652Z,56.59
2023-05-05T02:58:26.305Z,56.87
2023-05-05T03:01:07.697Z,56.70
2023-05-05T03:03:46.637Z,56.42
2023-05-05T03:06:25.603Z,56.43
2023-05-05T03:09:09.896Z,56.52
2023-05-05T03:11:48.858Z,56.40
2023-05-05T03:14:23.152Z,56.60
2023-05-05T03:16:58.052Z,56.32
2023-05-05T03:19:33.273Z,56.03
2023-05-05T03:22:06.388Z,56.13
2023-05-05T03:24:39.411Z,56.19
2023-05-05T03:27:14.579Z,56.10
2023-05-05T03:29:49.225Z,56.20
2023-05-05T03:32:24.117Z,55.89
2023-05-05T03:35:00.986Z,55.95
2023-05-05T03:37:39.751Z,55.86
2023-05-05T03:40:14.572Z,56.10
2023-05-05T03:42:49.384Z,56.24
2023-05-05T03:45:23.928Z,56.38
2023-05-05T03:47:57.259Z,56.09
2023-05-05T03:50:32.188Z,56.44
2023-05-05T03:53:04.949Z,56.39
2023-05-05T03:55:38.140Z,56.21
2023-05-05T03:58:11.220Z,56.53
2023-05-05T04:00:44.974Z,56.55
2023-05-05T04:03:18.918Z,56.52
2023-05-05T04:05:52.076Z,56.52
2023-05-05T04:08:25.758Z,56.65
2023-05-05T04:10:58.699Z,57.11
2023-05-05T04:13:31.637Z,57.03
2023-05-05T04:16:05.692Z,57.10
2023-05-05T04:18:38.172Z,57.13
2023-05-05T04:21:11.040Z,57.17
2023-05-05T04:23:44.002Z,57.26
2023-05-05T04:26:17.364Z,57.18
2023-05-05T04:28:50.632Z,57.35
2023-05-05T04:31:23.762Z,57.49
2023-05-05T04:33:57.590Z,57.44
2023-05-05T04:36:31.889Z,57.42
2023-05-05T04:39:07.200Z,57.30
2023-05-05T04:41:41.806Z,57.10
2023-05-05T04:44:17.115Z,57.11
2023-05-05T04:46:53.030Z,57.21
2023-05-05T04:49:26.659Z,56.87
2023-05-05T04:52:02.382Z,57.16
2023-05-05T04:54:38.327Z,57.39
2023-05-05T04:57:10.693Z,57.56
2023-05-05T04:59:44.993Z,57.34
2023-05-05T05:02:18.544Z,57.04
2023-05-05T05:04:51.082Z,56.94
2023-05-05T05:07:23.371Z,56.62
2023-05-05T05:09:56.466Z,56.55
2023-05-05T05:12:31.025Z,56.46
2023-05-05T05:15:08.453Z,56.62
2023-05-05T05:17:40.888Z,56.31
2023-05-05T05:20:14.373Z,56.23
2023-05-05T05:22:46.872Z,56.33
2023-05-05T05:25:22.915Z,56.36
2023-05-05T05:28:06.124Z,56.32
2023-05-05T05:30:42.481Z,56.24
2023-05-05T05:33:17.083Z,55.94
2023-05-05T05:35:50.254Z,56.12
2023-05-05T05:38:24.550Z,56.03
2023-05-05T05:40:58.099Z,55.92
2023-05-05T05:43:34.250Z,55.93
2023-05-05T05:46:08.915Z,56.14
2023-05-05T05:48:42.432Z,56.06
2023-05-05T05:51:19.562Z,55.77
2023-05-05T05:53:52.747Z,55.98
2023-05-05T05:56:25.003Z,55.93
2023-05-05T05:59:01.571Z,55.77
2023-05-05T06:01:33.975Z,56.06
2023-05-05T06:04:07.101Z,56.09
2023-05-05T06:06:39.786Z,56.07
2023-05-05T06:09:11.950Z,55.76
2023-05-05T06:11:44.237Z,55.72
2023-05-05T06:14:18.009Z,55.85
2023-05-05T06:16:52.396Z,55.91
2023-05-05T06:19:26.302Z,55.89
2023-05-05T06:21:58.607Z,56.06
2023-05-05T06:24:32.114Z,55.56
2023-05-05T06:27:05.668Z,55.72
2023-05-05T06:29:37.700Z,55.86
2023-05-05T06:32:10.710Z,55.97
2023-05-05T06:34:44.785Z,55.75
2023-05-05T06:37:17.185Z,55.21
2023-05-05T06:39:51.084Z,55.39
2023-05-05T06:42:23.450Z,55.54
2023-05-05T06:44:56.970Z,55.17
2023-05-05T06:47:29.149Z,55.81
2023-05-05T06:50:01.440Z,56.03
2023-05-05T06:52:33.795Z,55.70
2023-05-05T06:55:06.989Z,55.52
2023-05-05T06:57:39.269Z,56.03
2023-05-05T07:00:14.972Z,55.21
2023-05-05T07:02:47.774Z,55.56
2023-05-05T07:05:20.401Z,55.41
2023-05-05T07:07:56.576Z,54.80
2023-05-05T07:10:28.986Z,55.14
2023-05-05T07:13:01.427Z,55.47
2023-05-05T07:15:33.512Z,54.75
2023-05-05T07:18:06.064Z,54.62
2023-05-05T07:20:38.440Z,54.26
2023-05-05T07:23:11.336Z,54.18
2023-05-05T07:25:43.970Z,54.22
2023-05-05T07:28:16.559Z,54.17
2023-05-05T07:30:49.130Z,53.45
2023-05-05T07:33:21.554Z,54.75
2023-05-05T07:35:54.018Z,54.63
2023-05-05T07:38:26.721Z,53.89
2023-05-05T07:40:58.959Z,54.51
2023-05-05T07:43:31.152Z,53.98
2023-05-05T07:46:03.591Z,54.26
2023-05-05T07:48:35.899Z,53.86
2023-05-05T07:51:08.240Z,53.15
2023-05-05T07:53:41.990Z,53.61
2023-05-05T07:56:14.301Z,52.94
2023-05-05T07:58:46.823Z,52.84
2023-05-05T08:01:19.420Z,52.23
2023-05-05T08:03:51.960Z,52.39
2023-05-05T08:06:25.342Z,52.28
2023-05-05T08:08:58.178Z,53.49
2023-05-05T08:11:30.696Z,53.31
2023-05-05T08:14:02.954Z,53.31
2023-05-05T08:16:35.510Z,53.38
2023-05-05T08:19:14.819Z,53.29
2023-05-05T08:21:53.989Z,53.14
2023-05-05T08:24:26.211Z,53.09
2023-05-05T08:26:58.987Z,52.91
2023-05-05T08:29:31.139Z,52.57
2023-05-05T08:32:03.613Z,52.87
2023-05-05T08:34:36.299Z,53.47
2023-05-05T08:37:08.796Z,53.31
2023-05-05T08:39:41.358Z,52.71
2023-05-05T08:42:19.793Z,53.06
2023-05-05T08:45:01.280Z,53.38
2023-05-05T08:47:33.967Z,54.13
2023-05-05T08:50:07.366Z,53.25
2023-05-05T08:52:44.537Z,52.96
2023-05-05T08:55:26.848Z,52.78
2023-05-05T08:58:01.265Z,52.48
2023-05-05T09:00:34.766Z,52.54
2023-05-05T09:03:08.836Z,52.84
2023-05-05T09:05:43.349Z,52.61
2023-05-05T09:08:17.380Z,52.26
2023-05-05T09:10:52.390Z,52.33
2023-05-05T09:13:24.584Z,52.64
2023-05-05T09:15:56.879Z,52.18
2023-05-05T09:18:29.214Z,51.70
2023-05-05T09:21:02.274Z,50.93
2023-05-05T09:23:34.386Z,51.60
2023-05-05T09:26:08.977Z,52.11
2023-05-05T09:28:52.473Z,51.12
2023-05-05T09:31:25.053Z,51.28
2023-05-05T09:34:00.952Z,50.73
2023-05-05T09:36:49.087Z,50.90
2023-05-05T09:39:22.417Z,51.80
2023-05-05T09:41:54.957Z,51.12
2023-05-05T09:44:37.936Z,50.86
2023-05-05T09:47:22.370Z,49.42
2023-05-05T09:50:01.945Z,49.96
2023-05-05T09:52:34.733Z,50.03
2023-05-05T09:55:09.392Z,50.33
2023-05-05T09:57:41.756Z,49.72
2023-05-05T10:00:16.843Z,48.46
2023-05-05T10:02:49.158Z,49.11
2023-05-05T10:05:21.733Z,48.56
2023-05-05T10:07:54.215Z,48.87
2023-05-05T10:10:28.631Z,48.49
2023-05-05T10:12:59.981Z,48.60
2023-05-05T10:15:32.319Z,49.08
2023-05-05T10:18:08.130Z,48.66
2023-05-05T10:20:43.270Z,48.65
2023-05-05T10:23:16.081Z,48.46
2023-05-05T10:25:52.129Z,48.42
2023-05-05T10:28:33.696Z,48.90
2023-05-05T10:31:24.526Z,48.24
2023-05-05T10:34:04.491Z,48.50
2023-05-05T10:36:38.921Z,47.70
2023-05-05T10:39:12.536Z,46.83
2023-05-05T10:41:46.368Z,47.31
2023-05-05T10:44:19.316Z,47.37
2023-05-05T10:46:52.527Z,47.90
2023-05-05T10:49:34.496Z,47.30
2023-05-05T10:52:15.311Z,47.59
2023-05-05T10:54:51.256Z,47.50
2023-05-05T10:57:27.587Z,46.18
2023-05-05T10:59:59.875Z,46.11
2023-05-05T11:02:32.857Z,45.63
2023-05-05T11:05:18.122Z,45.38
2023-05-05T11:07:51.836Z,46.03
2023-05-05T11:10:24.192Z,45.91
2023-05-05T11:13:21.228Z,46.33
2023-05-05T11:15:55.505Z,45.72
2023-05-05T11:18:44.579Z,44.27
2023-05-05T11:21:18.819Z,45.07
2023-05-05T11:23:52.949Z,44.77
2023-05-05T11:26:52.329Z,43.42
2023-05-05T11:29:24.941Z,43.60
2023-05-05T11:32:16.911Z,42.98
2023-05-05T11:34:53.477Z,43.87
2023-05-05T11:37:28.198Z,43.32
2023-05-05T11:40:12.420Z,42.96
2023-05-05T11:42:44.817Z,44.21
2023-05-05T11:45:27.540Z,43.67
2023-05-05T11:48:27.303Z,43.50
2023-05-05T11:51:02.346Z,43.16
2023-05-05T11:53:35.157Z,41.71
2023-05-05T11:56:12.064Z,41.64
2023-05-05T11:58:44.606Z,41.88
2023-05-05T12:01:17.187Z,42.12
2023-05-05T12:03:49.678Z,41.18
2023-05-05T12:06:22.305Z,40.76
2023-05-05T12:08:55.000Z,41.04
2023-05-05T12:11:27.422Z,40.50
2023-05-05T12:14:12.874Z,41.95
2023-05-05T12:16:57.063Z,41.87
2023-05-05T12:19:33.139Z,41.05
2023-05-05T12:22:05.943Z,41.63
2023-05-05T12:24:38.322Z,42.14
2023-05-05T12:27:14.594Z,42.54
2023-05-05T12:29:47.098Z,42.31
2023-05-05T12:32:25.090Z,41.96
2023-05-05T12:34:58.801Z,41.47
2023-05-05T12:37:31.462Z,41.70
2023-05-05T12:40:06.310Z,41.78
2023-05-05T12:42:48.402Z,42.59
2023-05-05T12:45:20.569Z,42.11
2023-05-05T12:47:53.358Z,41.67
2023-05-05T12:50:33.722Z,41.77
2023-05-05T12:53:06.025Z,41.64
2023-05-05T12:55:41.372Z,41.30
2023-05-05T12:58:13.916Z,41.89
2023-05-05T13:00:46.565Z,41.35
2023-05-05T13:03:24.939Z,41.43
2023-05-05T13:05:57.456Z,41.36
2023-05-05T13:08:46.233Z,41.33
2023-05-05T13:11:18.595Z,40.59
2023-05-05T13:13:50.985Z,41.03
2023-05-05T13:16:23.770Z,41.19
2023-05-05T13:18:57.858Z,41.86
2023-05-05T13:21:30.327Z,42.03
2023-05-05T13:24:19.830Z,41.22
2023-05-05T13:26:55.919Z,40.81
2023-05-05T13:29:31.277Z,41.52
2023-05-05T13:32:04.198Z,41.34
2023-05-05T13:34:36.406Z,41.26
2023-05-05T13:37:08.782Z,40.95
2023-05-05T13:39:41.264Z,41.17
2023-05-05T13:42:13.529Z,40.81
2023-05-05T13:44:46.047Z,40.71
2023-05-05T13:47:18.732Z,41.34
2023-05-05T13:49:51.445Z,41.95
2023-05-05T13:52:23.748Z,41.53
2023-05-05T13:54:56.103Z,41.10
2023-05-05T13:57:28.601Z,41.37
2023-05-05T14:00:01.128Z,41.87
2023-05-05T14:02:33.499Z,41.90
2023-05-05T14:05:06.536Z,42.18
2023-05-05T14:07:38.803Z,41.45
2023-05-05T14:10:12.091Z,41.53
2023-05-05T14:12:44.486Z,41.17
2023-05-05T14:15:17.094Z,41.74
2023-05-05T14:17:49.641Z,42.26
2023-05-05T14:20:22.102Z,42.01
2023-05-05T14:22:54.945Z,42.20
2023-05-05T14:25:27.294Z,42.19
2023-05-05T14:27:59.478Z,42.51
2023-05-05T14:30:31.580Z,42.07
2023-05-05T14:33:04.118Z,42.71
2023-05-05T14:35:36.260Z,42.22
2023-05-05T14:38:08.569Z,42.58
2023-05-05T14:40:41.052Z,42.63
2023-05-05T14:43:13.424Z,42.18
2023-05-05T14:45:45.907Z,42.16
2023-05-05T14:48:21.881Z,42.51
2023-05-05T14:50:54.629Z,42.21
2023-05-05T14:53:27.185Z,41.93
2023-05-05T14:55:59.381Z,42.32
2023-05-05T14:58:31.754Z,42.64
2023-05-05T15:01:04.998Z,42.07
2023-05-05T15:03:37.680Z,41.99
2023-05-05T15:06:10.345Z,42.01
2023-05-05T15:08:42.720Z,42.08
2023-05-05T15:11:14.958Z,42.61
2023-05-05T15:13:47.246Z,42.26
2023-05-05T15:16:19.829Z,42.27
2023-05-05T15:18:52.394Z,42.18
2023-05-05T15:21:24.891Z,42.59
2023-05-05T15:23:57.349Z,42.54
2023-05-05T15:26:29.727Z,42.61
2023-05-05T15:29:02.196Z,42.73
2023-05-05T15:31:34.843Z,42.81
2023-05-05T15:34:07.013Z,42.60
2023-05-05T15:36:39.543Z,42.33
2023-05-05T15:39:12.015Z,42.80
2023-05-05T15:41:44.244Z,42.93
2023-05-05T15:44:16.630Z,42.90
2023-05-05T15:46:50.505Z,42.59
2023-05-05T15:49:23.224Z,42.98
2023-05-05T15:51:56.056Z,43.46
2023-05-05T15:54:28.491Z,42.65
2023-05-05T15:57:00.853Z,42.92
2023-05-05T15:59:33.897Z,43.37
2023-05-05T16:02:06.975Z,43.37
2023-05-05T16:04:39.258Z,43.45
2023-05-05T16:07:11.681Z,43.73
2023-05-05T16:09:44.481Z,43.59
2023-05-05T16:12:16.858Z,43.80
2023-05-05T16:14:49.404Z,43.79
2023-05-05T16:17:22.343Z,43.58
2023-05-05T16:19:55.194Z,43.57
2023-05-05T16:22:27.592Z,43.23
2023-05-05T16:24:59.812Z,42.92
2023-05-05T16:27:32.212Z,43.02
2023-05-05T16:30:04.639Z,42.55
2023-05-05T16:32:37.185Z,42.64
2023-05-05T16:35:11.904Z,42.78
2023-05-05T16:37:42.620Z,42.33
2023-05-05T16:40:15.936Z,42.09
2023-05-05T16:42:48.618Z,42.60
2023-05-05T16:45:20.824Z,42.69
2023-05-05T16:47:55.415Z,42.23
2023-05-05T16:50:27.917Z,42.17
2023-05-05T16:53:00.657Z,42.37
2023-05-05T16:55:33.041Z,42.42
2023-05-05T16:58:05.538Z,42.60
2023-05-05T17:00:37.907Z,42.80
2023-05-05T17:03:10.323Z,43.19
2023-05-05T17:05:42.786Z,43.38
2023-05-05T17:08:15.322Z,43.59
2023-05-05T17:10:48.054Z,43.14
2023-05-05T17:13:20.926Z,42.89
2023-05-05T17:15:53.276Z,43.15
2023-05-05T17:18:26.025Z,43.00
2023-05-05T17:20:58.339Z,43.10
2023-05-05T17:23:30.780Z,43.07
2023-05-05T17:26:03.201Z,43.15
2023-05-05T17:28:35.766Z,43.12
2023-05-05T17:31:08.321Z,43.16
2023-05-05T17:33:40.648Z,43.45
2023-05-05T17:36:13.524Z,43.67
2023-05-05T17:38:45.895Z,43.43
2023-05-05T17:41:18.229Z,43.63
2023-05-05T17:43:50.426Z,43.79
2023-05-05T17:46:22.853Z,44.26
2023-05-05T17:48:55.649Z,44.02
2023-05-05T17:51:28.668Z,44.14
2023-05-05T17:54:01.399Z,44.36
2023-05-05T17:56:34.904Z,44.20
2023-05-05T17:59:07.281Z,44.80
2023-05-05T18:01:39.576Z,44.83
2023-05-05T18:04:11.743Z,44.63
2023-05-05T18:06:44.329Z,44.66
2023-05-05T18:09:17.742Z,44.95
2023-05-05T18:11:52.424Z,45.12
2023-05-05T18:14:24.808Z,45.31
2023-05-05T18:16:56.908Z,45.38
2023-05-05T18:19:29.204Z,45.24
2023-05-05T18:22:01.694Z,46.01
2023-05-05T18:24:34.115Z,45.96
2023-05-05T18:27:08.465Z,45.63
2023-05-05T18:29:40.789Z,45.70
2023-05-05T18:32:13.310Z,45.98
2023-05-05T18:34:45.621Z,45.63
2023-05-05T18:37:17.879Z,45.98
2023-05-05T18:39:50.360Z,46.18
2023-05-05T18:42:22.574Z,45.91
2023-05-05T18:44:55.012Z,46.11
2023-05-05T18:47:28.684Z,46.41
2023-05-05T18:50:01.645Z,46.71
2023-05-05T18:52:34.359Z,46.70
2023-05-05T18:55:07.614Z,46.42
2023-05-05T18:57:40.760Z,46.20
2023-05-05T19:00:14.975Z,46.74
2023-05-05T19:02:47.353Z,46.47
2023-05-05T19:05:19.672Z,46.82
2023-05-05T19:07:52.083Z,47.04
2023-05-05T19:10:24.610Z,46.60
2023-05-05T19:12:57.180Z,46.86
2023-05-05T19:15:29.663Z,47.00
2023-05-05T19:18:02.322Z,47.26
2023-05-05T19:20:34.585Z,47.61
2023-05-05T19:23:07.340Z,47.61
2023-05-05T19:25:40.679Z,47.59
2023-05-05T19:28:13.156Z,47.73
2023-05-05T19:30:46.634Z,47.97
2023-05-05T19:33:19.321Z,48.83
2023-05-05T19:35:51.768Z,48.48
2023-05-05T19:38:24.113Z,48.52
2023-05-05T19:40:56.550Z,48.17
2023-05-05T19:43:28.914Z,48.70
2023-05-05T19:46:01.748Z,49.15
2023-05-05T19:48:34.064Z,49.08
2023-05-05T19:51:06.593Z,48.52
2023-05-05T19:53:40.215Z,49.09
2023-05-05T19:56:13.168Z,49.29
2023-05-05T19:58:57.723Z,49.20
2023-05-05T20:01:30.586Z,49.05
2023-05-05T20:04:03.477Z,48.72
2023-05-05T20:06:36.398Z,48.58
2023-05-05T20:09:08.896Z,48.99
2023-05-05T20:11:41.056Z,49.38
2023-05-05T20:14:13.344Z,49.29
2023-05-05T20:16:45.853Z,49.29
2023-05-05T20:19:18.277Z,49.43
2023-05-05T20:21:50.496Z,49.24
2023-05-05T20:24:23.494Z,49.25
2023-05-05T20:26:55.866Z,49.30
2023-05-05T20:29:28.115Z,49.39
2023-05-05T20:32:00.397Z,49.56
2023-05-05T20:34:32.673Z,49.55
2023-05-05T20:37:05.120Z,48.94
2023-05-05T20:39:37.885Z,49.15
2023-05-05T20:42:10.293Z,49.59
2023-05-05T20:44:43.002Z,49.19
2023-05-05T20:47:15.555Z,49.41
2023-05-05T20:49:48.167Z,49.55
2023-05-05T20:52:20.688Z,49.84
2023-05-05T20:54:52.912Z,49.92
2023-05-05T20:57:26.074Z,50.02
2023-05-05T20:59:58.847Z,50.16
2023-05-05T21:02:31.820Z,49.94
2023-05-05T21:05:04.380Z,49.78
2023-05-05T21:07:37.272Z,49.73
2023-05-05T21:10:12.169Z,49.38
2023-05-05T21:12:44.833Z,49.53
2023-05-05T21:15:17.724Z,49.70
2023-05-05T21:17:50.195Z,49.48
2023-05-05T21:20:22.789Z,49.33
2023-05-05T21:22:55.353Z,49.52
2023-05-05T21:25:28.798Z,49.85
2023-05-05T21:28:01.422Z,50.07
2023-05-05T21:30:33.731Z,50.77
2023-05-05T21:33:05.964Z,50.87
2023-05-05T21:35:38.248Z,50.78
2023-05-05T21:38:10.641Z,50.41
2023-05-05T21:40:43.065Z,50.34
2023-05-05T21:43:15.596Z,50.66
2023-05-05T21:45:47.886Z,51.28
2023-05-05T21:48:20.110Z,51.47
2023-05-05T21:50:52.339Z,51.08
2023-05-05T21:53:24.956Z,51.14
2023-05-05T21:55:57.763Z,51.01
2023-05-05T21:58:30.213Z,51.02
2023-05-05T22:01:02.594Z,50.60
2023-05-05T22:03:36.279Z,50.17
2023-05-05T22:06:08.882Z,50.91
2023-05-05T22:08:41.426Z,50.88
2023-05-05T22:11:13.853Z,50.80
2023-05-05T22:13:46.941Z,50.16
2023-05-05T22:16:19.643Z,50.35
2023-05-05T22:18:52.581Z,50.21
2023-05-05T22:21:25.006Z,50.56
2023-05-05T22:23:59.011Z,50.26
2023-05-05T22:26:31.765Z,50.42
2023-05-05T22:29:04.358Z,50.34
2023-05-05T22:31:36.870Z,50.65
2023-05-05T22:34:09.169Z,50.39
2023-05-05T22:36:42.329Z,50.43
2023-05-05T22:39:15.129Z,50.56
2023-05-05T22:41:47.618Z,50.57
2023-05-05T22:44:19.912Z,50.48
2023-05-05T22:46:52.575Z,50.68
2023-05-05T22:49:24.957Z,50.36
2023-05-05T22:51:58.543Z,50.59
2023-05-05T22:54:31.025Z,50.78
2023-05-05T22:57:03.854Z,50.94
2023-05-05T22:59:36.663Z,50.48
2023-05-05T23:02:09.238Z,50.91
2023-05-05T23:04:41.654Z,50.66
2023-05-05T23:07:14.286Z,50.88
2023-05-05T23:09:47.348Z,50.67
2023-05-05T23:12:19.616Z,50.72
2023-05-05T23:14:52.510Z,50.63
2023-05-05T23:17:24.784Z,50.66
2023-05-05T23:19:57.156Z,50.81
2023-05-05T23:22:30.109Z,50.70
2023-05-05T23:25:02.554Z,50.98
2023-05-05T23:27:35.118Z,51.07
2023-05-05T23:30:09.990Z,51.07
2023-05-05T23:32:40.923Z,50.71
2023-05-05T23:35:13.937Z,51.40
2023-05-05T23:37:46.343Z,51.58
2023-05-05T23:40:19.089Z,51.42
2023-05-05T23:42:51.406Z,51.25
2023-05-05T23:45:23.657Z,51.33
2023-05-05T23:47:56.494Z,51.10
2023-05-05T23:50:30.247Z,51.41
2023-05-05T23:53:02.701Z,51.01
2023-05-05T23:55:35.314Z,51.09
2023-05-05T23:58:07.792Z,51.13
